createdAt,value
2022-09-03T00:00:41.670Z,3.25
2022-09-03T00:03:44.849Z,2.85
2022-09-03T00:06:49.561Z,3.00
2022-09-03T00:09:47.064Z,3.35
2022-09-03T00:12:37.198Z,3.38
2022-09-03T00:15:24.084Z,3.78
2022-09-03T00:18:14.486Z,4.03
2022-09-03T00:21:18.957Z,3.78
2022-09-03T00:24:14.004Z,3.97
2022-09-03T00:27:01.940Z,4.07
2022-09-03T00:29:56.673Z,4.75
2022-09-03T00:32:47.172Z,4.57
2022-09-03T00:35:37.981Z,4.35
2022-09-03T00:38:24.177Z,4.43
2022-09-03T00:41:33.952Z,4.35
2022-09-03T00:44:50.952Z,3.90
2022-09-03T00:48:28.229Z,4.63
2022-09-03T00:52:03.872Z,4.70
2022-09-03T00:55:22.101Z,4.45
2022-09-03T00:58:26.950Z,4.63
2022-09-03T01:02:13.012Z,5.15
2022-09-03T01:05:08.589Z,4.40
2022-09-03T01:08:08.731Z,5.43
2022-09-03T01:10:57.009Z,5.28
2022-09-03T01:13:50.831Z,5.45
2022-09-03T01:16:39.937Z,5.55
2022-09-03T01:20:01.071Z,6.13
2022-09-03T01:23:00.326Z,5.60
2022-09-03T01:26:40.171Z,6.10
2022-09-03T01:29:54.887Z,6.32
2022-09-03T01:32:56.745Z,5.65
2022-09-03T01:38:49.002Z,6.30
2022-09-03T01:42:07.627Z,6.15
2022-09-03T01:45:08.476Z,5.43
2022-09-03T01:48:26.859Z,5.90
2022-09-03T01:51:28.245Z,6.10
2022-09-03T01:54:39.782Z,5.82
2022-09-03T01:58:06.633Z,5.40
2022-09-03T02:00:59.407Z,6.18
2022-09-03T02:03:45.923Z,6.43
2022-09-03T02:06:31.969Z,6.10
2022-09-03T02:09:18.980Z,6.20
2022-09-03T02:12:16.756Z,5.75
2022-09-03T02:15:08.003Z,6.07
2022-09-03T02:17:57.798Z,6.32
2022-09-03T02:20:45.115Z,6.78
2022-09-03T02:23:31.664Z,6.50
2022-09-03T02:26:23.178Z,6.32
2022-09-03T02:29:10.187Z,6.18
2022-09-03T02:31:57.991Z,5.90
2022-09-03T02:34:44.160Z,6.07
2022-09-03T02:37:30.080Z,5.53
2022-09-03T02:40:17.202Z,5.30
2022-09-03T02:43:06.159Z,4.53
2022-09-03T02:45:55.284Z,4.45
2022-09-03T02:48:41.134Z,4.78
2022-09-03T02:51:27.782Z,5.20
2022-09-03T02:54:16.705Z,5.10
2022-09-03T02:57:15.416Z,5.25
2022-09-03T03:00:09.701Z,5.35
2022-09-03T03:02:55.985Z,5.10
2022-09-03T03:05:43.622Z,5.30
2022-09-03T03:08:30.646Z,4.95
2022-09-03T03:11:18.594Z,4.70
2022-09-03T03:14:04.692Z,5.30
2022-09-03T03:16:51.706Z,5.20
2022-09-03T03:19:37.638Z,4.45
2022-09-03T03:22:23.766Z,4.75
2022-09-03T03:25:09.903Z,4.45
2022-09-03T03:27:57.094Z,4.57
2022-09-03T03:30:43.054Z,5.40
2022-09-03T03:33:29.904Z,4.50
2022-09-03T03:36:15.936Z,5.00
2022-09-03T03:39:03.293Z,4.68
2022-09-03T03:41:53.508Z,5.43
2022-09-03T03:44:44.347Z,4.78
2022-09-03T03:47:33.780Z,4.93
2022-09-03T03:50:24.216Z,5.30
2022-09-03T03:53:10.287Z,6.15
2022-09-03T03:55:58.162Z,6.18
2022-09-03T03:58:44.644Z,6.40
2022-09-03T04:01:32.667Z,6.43
2022-09-03T04:04:19.397Z,5.75
2022-09-03T04:07:07.693Z,6.25
2022-09-03T04:09:57.181Z,5.85
2022-09-03T04:12:48.840Z,5.65
2022-09-03T04:15:39.887Z,6.10
2022-09-03T04:18:25.951Z,6.13
2022-09-03T04:21:18.870Z,6.68
2022-09-03T04:24:06.757Z,5.90
2022-09-03T04:26:54.038Z,6.47
2022-09-03T04:29:40.245Z,6.40
2022-09-03T04:32:44.918Z,7.07
2022-09-03T04:35:35.960Z,6.97
2022-09-03T04:38:24.356Z,6.72
2022-09-03T04:41:14.297Z,6.43
2022-09-03T04:44:26.848Z,5.53
2022-09-03T04:47:12.788Z,5.60
2022-09-03T04:49:58.929Z,5.28
2022-09-03T04:52:45.100Z,5.03
2022-09-03T04:55:35.837Z,5.05
2022-09-03T05:01:10.040Z,3.83
2022-09-03T05:03:58.253Z,3.55
2022-09-03T05:06:49.071Z,3.40
2022-09-03T05:10:21.005Z,3.20
2022-09-03T05:13:10.033Z,2.85
2022-09-03T05:16:07.816Z,2.53
2022-09-03T05:19:01.757Z,2.58
2022-09-03T05:21:50.009Z,2.50
2022-09-03T05:24:36.117Z,2.67
2022-09-03T05:27:22.671Z,2.70
2022-09-03T05:30:09.598Z,2.92
2022-09-03T05:32:58.006Z,2.65
2022-09-03T05:35:43.986Z,2.45
2022-09-03T05:38:30.270Z,2.60
2022-09-03T05:41:19.017Z,3.20
2022-09-03T05:44:06.120Z,2.65
2022-09-03T05:46:52.695Z,2.53
2022-09-03T05:49:38.656Z,2.47
2022-09-03T05:52:25.223Z,2.60
2022-09-03T05:55:13.483Z,2.42
2022-09-03T05:57:59.761Z,2.67
2022-09-03T06:01:12.919Z,2.50
2022-09-03T06:04:14.722Z,2.40
2022-09-03T06:07:06.265Z,2.40
2022-09-03T06:09:57.161Z,2.45
2022-09-03T06:12:49.873Z,2.40
2022-09-03T06:15:36.304Z,2.42
2022-09-03T06:18:29.247Z,2.63
2022-09-03T06:21:16.651Z,2.50
2022-09-03T06:24:06.294Z,2.30
2022-09-03T06:26:57.852Z,2.63
2022-09-03T06:29:47.338Z,2.28
2022-09-03T06:35:42.878Z,2.53
2022-09-03T06:38:37.615Z,1.88
2022-09-03T06:41:25.863Z,1.80
2022-09-03T06:44:12.690Z,2.15
2022-09-03T06:47:01.596Z,2.13
2022-09-03T06:49:47.982Z,2.30
2022-09-03T06:52:33.949Z,2.08
2022-09-03T06:55:23.763Z,2.25
2022-09-03T06:58:10.898Z,2.25
2022-09-03T07:01:09.535Z,2.08
2022-09-03T07:04:03.538Z,2.10
2022-09-03T07:06:49.451Z,2.30
2022-09-03T07:09:38.367Z,1.70
2022-09-03T07:12:24.614Z,2.30
2022-09-03T07:15:10.750Z,1.90
2022-09-03T07:17:58.437Z,2.13
2022-09-03T07:20:44.366Z,2.75
2022-09-03T07:23:31.555Z,3.55
2022-09-03T07:26:21.881Z,4.13
2022-09-03T07:29:08.339Z,1.95
2022-09-03T07:31:58.439Z,1.88
2022-09-03T07:34:59.677Z,1.80
2022-09-03T07:37:47.628Z,2.00
2022-09-03T07:40:34.373Z,1.90
2022-09-03T07:43:23.765Z,2.03
2022-09-03T07:46:15.471Z,1.70
2022-09-03T07:49:05.526Z,2.67
2022-09-03T07:51:54.446Z,2.17
2022-09-03T07:54:41.400Z,2.25
2022-09-03T07:57:27.109Z,1.65
2022-09-03T08:00:13.572Z,1.75
2022-09-03T08:03:06.501Z,1.95
2022-09-03T08:05:53.062Z,2.08
2022-09-03T08:08:41.633Z,2.40
2022-09-03T08:11:28.761Z,1.50
2022-09-03T08:14:15.221Z,1.50
2022-09-03T08:17:08.210Z,1.45
2022-09-03T08:19:57.500Z,1.70
2022-09-03T08:22:44.379Z,3.00
2022-09-03T08:25:35.166Z,1.20
2022-09-03T08:28:24.007Z,1.13
2022-09-03T08:31:20.717Z,2.70
2022-09-03T08:34:07.518Z,1.90
2022-09-03T08:36:56.344Z,1.90
2022-09-03T08:39:48.944Z,2.08
2022-09-03T08:42:48.230Z,1.83
2022-09-03T08:45:36.491Z,1.15
2022-09-03T08:48:26.024Z,1.75
2022-09-03T08:51:12.409Z,1.05
2022-09-03T08:54:00.541Z,0.98
2022-09-03T08:56:56.255Z,1.27
2022-09-03T09:01:04.356Z,1.95
2022-09-03T09:04:15.015Z,1.38
2022-09-03T09:07:14.481Z,1.10
2022-09-03T09:10:14.478Z,1.33
2022-09-03T09:13:25.861Z,1.80
2022-09-03T09:16:23.807Z,1.10
2022-09-03T09:19:12.409Z,1.55
2022-09-03T09:22:27.755Z,1.95
2022-09-03T09:25:24.397Z,1.40
2022-09-03T09:28:22.256Z,1.30
2022-09-03T09:31:13.094Z,1.20
2022-09-03T09:34:08.132Z,1.20
2022-09-03T09:36:56.307Z,1.15
2022-09-03T09:39:55.523Z,1.52
2022-09-03T09:42:41.676Z,1.10
2022-09-03T09:45:35.287Z,1.30
2022-09-03T09:48:32.209Z,1.40
2022-09-03T09:51:27.668Z,1.77
2022-09-03T09:54:24.896Z,1.42
2022-09-03T09:57:18.601Z,1.10
2022-09-03T10:00:14.532Z,1.10
2022-09-03T10:03:02.051Z,1.05
2022-09-03T10:06:00.905Z,1.70
2022-09-03T10:08:48.379Z,1.33
2022-09-03T10:11:40.570Z,1.20
2022-09-03T10:14:35.416Z,0.95
2022-09-03T10:17:36.781Z,0.90
2022-09-03T10:20:34.144Z,1.10
2022-09-03T10:23:20.349Z,1.25
2022-09-03T10:26:10.382Z,1.92
2022-09-03T10:29:01.699Z,2.35
2022-09-03T10:32:39.117Z,1.00
2022-09-03T10:35:31.283Z,2.40
2022-09-03T10:38:36.225Z,1.48
2022-09-03T10:41:38.437Z,1.13
2022-09-03T10:44:37.148Z,0.80
2022-09-03T10:47:42.054Z,1.30
2022-09-03T10:51:07.035Z,1.15
2022-09-03T10:54:40.356Z,1.42
2022-09-03T10:57:57.242Z,0.90
2022-09-03T11:01:59.926Z,2.05
2022-09-03T11:05:15.133Z,1.00
2022-09-03T11:08:19.133Z,1.25
2022-09-03T11:11:13.831Z,1.33
2022-09-03T11:14:11.038Z,1.20
2022-09-03T11:17:15.837Z,1.08
2022-09-03T11:20:31.026Z,1.10
2022-09-03T11:23:20.497Z,1.25
2022-09-03T11:26:09.575Z,1.80
2022-09-03T11:29:04.858Z,0.90
2022-09-03T11:32:16.344Z,0.90
2022-09-03T11:35:14.407Z,1.20
2022-09-03T11:38:21.569Z,1.40
2022-09-03T11:41:16.187Z,1.00
2022-09-03T11:44:20.877Z,0.90
2022-09-03T11:47:20.288Z,1.30
2022-09-03T11:50:20.691Z,1.10
2022-09-03T11:53:11.680Z,1.20
2022-09-03T11:56:14.585Z,1.23
2022-09-03T11:59:15.297Z,1.10
2022-09-03T12:02:31.194Z,1.48
2022-09-03T12:05:42.992Z,0.73
2022-09-03T12:08:44.120Z,1.30
2022-09-03T12:11:52.108Z,0.80
2022-09-03T12:15:00.317Z,0.73
2022-09-03T12:18:17.104Z,0.60
2022-09-03T12:21:06.734Z,1.73
2022-09-03T12:26:44.927Z,0.80
2022-09-03T12:29:31.846Z,1.10
2022-09-03T12:32:18.916Z,1.30
2022-09-03T12:35:13.280Z,0.80
2022-09-03T12:38:06.453Z,1.05
2022-09-03T12:41:26.945Z,1.13
2022-09-03T12:44:13.477Z,1.17
2022-09-03T12:47:36.883Z,1.00
2022-09-03T12:50:24.826Z,0.98
2022-09-03T12:53:14.016Z,0.90
2022-09-03T12:56:01.565Z,1.10
2022-09-03T12:58:59.956Z,0.90
2022-09-03T13:01:52.142Z,0.80
2022-09-03T13:04:40.052Z,1.13
2022-09-03T13:07:27.982Z,1.10
2022-09-03T13:10:25.582Z,1.00
2022-09-03T13:13:20.345Z,0.90
2022-09-03T13:16:09.147Z,0.82
2022-09-03T13:19:05.916Z,0.90
2022-09-03T13:22:12.787Z,0.90
2022-09-03T13:25:41.409Z,0.93
2022-09-03T13:29:08.658Z,1.20
2022-09-03T13:32:17.669Z,1.05
2022-09-03T13:35:15.792Z,0.80
2022-09-03T13:38:39.851Z,0.90
2022-09-03T13:41:38.905Z,1.10
2022-09-03T13:44:32.987Z,0.90
2022-09-03T13:48:04.893Z,0.93
2022-09-03T13:50:59.693Z,1.10
2022-09-03T13:53:58.060Z,1.02
2022-09-03T13:56:59.719Z,1.30
2022-09-03T13:59:51.789Z,1.13
2022-09-03T14:02:57.985Z,0.98
2022-09-03T14:06:03.693Z,1.00
2022-09-03T14:09:07.274Z,0.80
2022-09-03T14:11:58.899Z,1.00
2022-09-03T14:15:02.727Z,2.17
2022-09-03T14:17:56.920Z,1.05
2022-09-03T14:21:09.951Z,1.10
2022-09-03T14:24:07.823Z,1.50
2022-09-03T14:26:56.561Z,1.00
2022-09-03T14:29:52.923Z,1.00
2022-09-03T14:32:54.028Z,1.10
2022-09-03T14:35:58.060Z,0.98
2022-09-03T14:39:00.880Z,0.90
2022-09-03T14:42:00.543Z,1.00
2022-09-03T14:45:02.696Z,0.75
2022-09-03T14:47:58.736Z,1.20
2022-09-03T14:51:04.647Z,1.00
2022-09-03T14:53:58.533Z,1.02
2022-09-03T14:57:13.218Z,1.27
2022-09-03T15:00:10.305Z,1.05
2022-09-03T15:03:43.489Z,0.70
2022-09-03T15:06:51.041Z,0.70
2022-09-03T15:09:42.924Z,0.80
2022-09-03T15:12:33.833Z,1.00
2022-09-03T15:15:24.719Z,0.90
2022-09-03T15:18:20.837Z,0.95
2022-09-03T15:21:38.227Z,1.10
2022-09-03T15:24:58.534Z,1.15
2022-09-03T15:28:39.541Z,0.90
2022-09-03T15:31:49.051Z,1.35
2022-09-03T15:35:35.866Z,1.13
2022-09-03T15:38:33.354Z,1.13
2022-09-03T15:41:30.313Z,1.50
2022-09-03T15:44:20.471Z,1.67
2022-09-03T15:47:51.049Z,1.15
2022-09-03T15:50:53.624Z,1.58
2022-09-03T15:53:51.312Z,1.38
2022-09-03T15:56:45.568Z,1.17
2022-09-03T15:59:40.578Z,1.08
2022-09-03T16:02:52.462Z,1.48
2022-09-03T16:05:43.535Z,1.10
2022-09-03T16:08:32.626Z,1.00
2022-09-03T16:11:26.793Z,1.27
2022-09-03T16:14:22.071Z,1.10
2022-09-03T16:17:33.215Z,1.00
2022-09-03T16:20:22.439Z,1.17
2022-09-03T16:23:47.358Z,1.40
2022-09-03T16:26:37.598Z,1.80
2022-09-03T16:29:28.525Z,2.85
2022-09-03T16:32:23.607Z,1.58
2022-09-03T16:35:12.705Z,1.10
2022-09-03T16:38:09.844Z,1.20
2022-09-03T16:41:16.452Z,1.23
2022-09-03T16:44:18.360Z,1.40
2022-09-03T16:47:30.453Z,1.63
2022-09-03T16:50:58.109Z,1.65
2022-09-03T16:54:03.413Z,1.80
2022-09-03T16:56:56.593Z,1.92
2022-09-03T17:00:23.796Z,1.50
2022-09-03T17:03:13.415Z,1.70
2022-09-03T17:06:43.568Z,2.38
2022-09-03T17:09:39.709Z,2.80
2022-09-03T17:12:34.498Z,1.77
2022-09-03T17:15:34.655Z,2.53
2022-09-03T17:18:30.355Z,2.70
2022-09-03T17:21:57.459Z,3.05
2022-09-03T17:24:50.870Z,2.47
2022-09-03T17:27:52.465Z,1.90
2022-09-03T17:30:58.250Z,2.20
2022-09-03T17:34:22.393Z,2.17
2022-09-03T17:37:17.508Z,2.50
2022-09-03T17:40:13.044Z,2.97
2022-09-03T17:43:25.026Z,2.72
2022-09-03T17:46:35.791Z,2.42
2022-09-03T17:49:24.817Z,2.05
2022-09-03T17:52:28.028Z,2.40
2022-09-03T17:55:32.392Z,8.00
2022-09-03T17:58:26.935Z,3.78
2022-09-03T18:01:20.314Z,2.08
2022-09-03T18:04:28.985Z,2.97
2022-09-03T18:07:29.447Z,3.25
2022-09-03T18:10:33.361Z,2.10
2022-09-03T18:13:43.984Z,2.00
2022-09-03T18:16:32.948Z,3.63
2022-09-03T18:19:58.152Z,1.88
2022-09-03T18:23:29.187Z,2.58
2022-09-03T18:26:47.774Z,3.92
2022-09-03T18:30:02.296Z,3.83
2022-09-03T18:33:07.242Z,2.15
2022-09-03T18:36:11.522Z,2.03
2022-09-03T18:39:45.501Z,2.47
2022-09-03T18:43:17.394Z,3.15
2022-09-03T18:54:12.008Z,4.78
2022-09-03T18:57:17.482Z,2.38
2022-09-03T19:00:34.226Z,3.05
2022-09-03T19:04:13.421Z,1.90
2022-09-03T19:07:27.912Z,4.07
2022-09-03T19:10:41.574Z,1.85
2022-09-03T19:13:52.226Z,1.88
2022-09-03T19:20:55.867Z,2.00
2022-09-03T19:24:01.065Z,2.08
2022-09-03T19:27:51.801Z,1.50
2022-09-03T19:31:07.670Z,2.22
2022-09-03T19:34:25.152Z,1.40
2022-09-03T19:37:40.857Z,1.80
2022-09-03T19:40:58.056Z,1.48
2022-09-03T19:44:11.884Z,1.70
2022-09-03T19:47:21.987Z,1.65
2022-09-03T19:50:40.993Z,1.70
2022-09-03T19:53:46.298Z,1.65
2022-09-03T19:56:52.930Z,1.80
2022-09-03T20:00:00.818Z,1.50
2022-09-03T20:03:07.823Z,1.70
2022-09-03T20:06:12.848Z,1.75
2022-09-03T20:09:27.822Z,2.40
2022-09-03T20:12:13.973Z,1.67
2022-09-03T20:15:02.335Z,2.47
2022-09-03T20:17:51.270Z,1.70
2022-09-03T20:20:48.910Z,1.67
2022-09-03T20:23:49.785Z,1.60
2022-09-03T20:27:03.758Z,2.20
2022-09-03T20:29:59.889Z,1.92
2022-09-03T20:33:07.701Z,2.22
2022-09-03T20:35:56.883Z,1.88
2022-09-03T20:39:22.709Z,2.10
2022-09-03T20:42:14.880Z,2.25
2022-09-03T20:45:05.862Z,2.08
2022-09-03T20:48:05.681Z,2.10
2022-09-03T20:51:01.948Z,1.80
2022-09-03T20:53:49.613Z,2.10
2022-09-03T20:56:35.851Z,1.85
2022-09-03T21:00:00.998Z,1.67
2022-09-03T21:03:08.965Z,2.10
2022-09-03T21:06:08.128Z,2.30
2022-09-03T21:09:08.958Z,2.15
2022-09-03T21:12:12.676Z,1.95
2022-09-03T21:15:17.679Z,1.58
2022-09-03T21:18:32.731Z,1.80
2022-09-03T21:21:23.889Z,1.80
2022-09-03T21:24:17.554Z,1.73
2022-09-03T21:27:38.719Z,1.73
2022-09-03T21:33:15.827Z,1.88
2022-09-03T21:36:07.862Z,1.80
2022-09-03T21:38:59.837Z,1.83
2022-09-03T21:41:55.360Z,1.65
2022-09-03T21:44:41.007Z,2.08
2022-09-03T21:47:28.400Z,2.00
2022-09-03T21:50:21.996Z,1.83
2022-09-03T21:53:26.647Z,2.00
2022-09-03T21:56:23.515Z,1.83
2022-09-03T21:59:19.642Z,1.90
2022-09-03T22:02:24.428Z,1.98
2022-09-03T22:05:10.085Z,2.15
2022-09-03T22:08:05.071Z,1.90
2022-09-03T22:11:20.089Z,1.80
2022-09-03T22:14:16.055Z,1.83
2022-09-03T22:17:16.806Z,1.60
2022-09-03T22:20:05.125Z,2.00
2022-09-03T22:22:57.828Z,1.70
2022-09-03T22:26:10.121Z,1.83
2022-09-03T22:29:12.496Z,2.28
2022-09-03T22:32:27.544Z,1.98
2022-09-03T22:35:48.752Z,1.70
2022-09-03T22:39:12.477Z,1.90
2022-09-03T22:42:37.715Z,1.90
2022-09-03T22:45:56.952Z,1.63
2022-09-03T22:49:24.573Z,1.98
2022-09-03T22:52:32.090Z,1.98
2022-09-03T22:55:26.110Z,1.70
2022-09-03T22:58:17.853Z,1.90
2022-09-03T23:01:12.728Z,1.63
2022-09-03T23:04:29.976Z,1.48
2022-09-03T23:07:37.740Z,1.80
2022-09-03T23:10:31.509Z,1.90
2022-09-03T23:13:21.422Z,1.60
2022-09-03T23:16:25.543Z,1.83
2022-09-03T23:22:03.978Z,1.83
2022-09-03T23:25:05.562Z,1.70
2022-09-03T23:27:58.860Z,1.75
2022-09-03T23:30:44.961Z,2.10
2022-09-03T23:33:30.917Z,2.03
2022-09-03T23:36:36.751Z,1.95
2022-09-03T23:39:50.017Z,2.00
2022-09-03T23:43:03.522Z,1.80
2022-09-03T23:46:00.574Z,1.85
2022-09-03T23:48:58.482Z,1.85
2022-09-03T23:52:20.805Z,1.98
2022-09-03T23:55:42.650Z,1.63
2022-09-03T23:58:55.606Z,2.30
